createdAt,value
2018-07-09T00:00:53.145Z,54.81
2018-07-09T00:03:20.904Z,53.95
2018-07-09T00:05:49.688Z,53.34
2018-07-09T00:08:17.973Z,53.38
2018-07-09T00:10:53.602Z,53.48
2018-07-09T00:13:22.017Z,53.48
2018-07-09T00:15:49.741Z,53.53
2018-07-09T00:18:17.462Z,53.77
2018-07-09T00:20:45.399Z,53.55
2018-07-09T00:23:13.579Z,52.78
2018-07-09T00:25:41.351Z,53.57
2018-07-09T00:28:09.118Z,53.94
2018-07-09T00:30:36.889Z,53.37
2018-07-09T00:33:04.882Z,54.33
2018-07-09T00:35:32.576Z,54.33
2018-07-09T00:38:00.258Z,53.67
2018-07-09T00:40:27.968Z,53.75
2018-07-09T00:42:55.693Z,53.28
2018-07-09T00:45:23.504Z,52.99
2018-07-09T00:47:51.319Z,54.49
2018-07-09T00:50:19.097Z,54.63
2018-07-09T00:52:46.917Z,54.24
2018-07-09T00:55:14.585Z,53.38
2018-07-09T00:57:42.344Z,53.49
2018-07-09T01:00:10.061Z,53.50
2018-07-09T01:02:37.720Z,53.63
2018-07-09T01:05:05.601Z,54.08
2018-07-09T01:07:33.287Z,54.52
2018-07-09T01:10:00.989Z,54.70
2018-07-09T01:12:28.674Z,54.30
2018-07-09T01:14:56.345Z,54.12
2018-07-09T01:17:24.035Z,54.08
2018-07-09T01:19:51.845Z,54.19
2018-07-09T01:22:19.582Z,54.96
2018-07-09T01:24:47.338Z,55.21
2018-07-09T01:27:15.037Z,54.09
2018-07-09T01:29:42.877Z,53.70
2018-07-09T01:32:10.561Z,54.12
2018-07-09T01:34:38.260Z,54.07
2018-07-09T01:37:06.077Z,54.08
2018-07-09T01:39:33.793Z,54.32
2018-07-09T01:42:01.580Z,54.51
2018-07-09T01:44:29.272Z,54.67
2018-07-09T01:46:57.087Z,54.41
2018-07-09T01:49:24.946Z,54.54
2018-07-09T01:51:52.740Z,54.37
2018-07-09T01:54:20.469Z,54.16
2018-07-09T01:56:48.148Z,54.67
2018-07-09T01:59:15.860Z,54.56
2018-07-09T02:01:43.579Z,53.87
2018-07-09T02:04:11.282Z,53.22
2018-07-09T02:06:38.989Z,53.12
2018-07-09T02:09:07.529Z,53.31
2018-07-09T02:11:35.376Z,52.96
2018-07-09T02:14:03.069Z,53.34
2018-07-09T02:16:30.753Z,53.41
2018-07-09T02:18:58.654Z,52.72
2018-07-09T02:21:26.334Z,52.65
2018-07-09T02:23:54.358Z,52.58
2018-07-09T02:26:22.073Z,53.40
2018-07-09T02:28:49.791Z,52.78
2018-07-09T02:31:17.497Z,52.76
2018-07-09T02:33:45.165Z,52.64
2018-07-09T02:36:12.863Z,52.25
2018-07-09T02:38:40.560Z,51.89
2018-07-09T02:41:08.257Z,51.46
2018-07-09T02:43:35.963Z,51.38
2018-07-09T02:46:03.662Z,50.92
2018-07-09T02:48:31.392Z,50.53
2018-07-09T02:50:59.234Z,50.34
2018-07-09T02:53:26.988Z,50.18
2018-07-09T02:55:54.692Z,49.72
2018-07-09T02:58:22.391Z,49.83
2018-07-09T03:00:50.216Z,49.59
2018-07-09T03:03:17.873Z,49.68
2018-07-09T03:05:45.597Z,49.44
2018-07-09T03:08:13.325Z,49.24
2018-07-09T03:10:41.194Z,49.07
2018-07-09T03:13:08.899Z,49.06
2018-07-09T03:15:36.733Z,48.93
2018-07-09T03:18:04.482Z,49.00
2018-07-09T03:20:32.257Z,49.02
2018-07-09T03:22:59.948Z,48.95
2018-07-09T03:25:27.639Z,48.92
2018-07-09T03:27:55.355Z,48.96
2018-07-09T03:30:23.034Z,48.99
2018-07-09T03:32:50.734Z,48.98
2018-07-09T03:35:18.438Z,49.01
2018-07-09T03:37:46.109Z,49.22
2018-07-09T03:40:13.794Z,49.12
2018-07-09T03:42:41.510Z,49.31
2018-07-09T03:45:09.207Z,49.10
2018-07-09T03:47:36.917Z,49.41
2018-07-09T03:50:04.732Z,49.06
2018-07-09T03:52:32.417Z,49.41
2018-07-09T03:55:00.149Z,49.49
2018-07-09T03:57:27.866Z,49.23
2018-07-09T03:59:55.623Z,49.35
2018-07-09T04:02:23.479Z,49.42
2018-07-09T04:04:51.210Z,49.63
2018-07-09T04:07:18.970Z,49.72
2018-07-09T04:09:46.834Z,49.44
2018-07-09T04:12:14.539Z,49.90
2018-07-09T04:14:42.248Z,49.77
2018-07-09T04:17:09.997Z,50.17
2018-07-09T04:19:37.658Z,49.81
2018-07-09T04:22:05.335Z,50.15
2018-07-09T04:24:33.053Z,50.72
2018-07-09T04:27:00.739Z,50.40
2018-07-09T04:29:28.422Z,50.42
2018-07-09T04:31:56.401Z,50.17
2018-07-09T04:34:24.118Z,50.32
2018-07-09T04:36:51.833Z,50.46
2018-07-09T04:39:19.553Z,50.59
2018-07-09T04:41:47.266Z,50.07
2018-07-09T04:44:14.994Z,50.45
2018-07-09T04:46:42.756Z,50.58
2018-07-09T04:49:10.481Z,50.65
2018-07-09T04:51:38.214Z,50.56
2018-07-09T04:54:05.960Z,50.21
2018-07-09T04:56:33.645Z,50.38
2018-07-09T04:59:01.298Z,50.83
2018-07-09T05:01:29.013Z,50.97
2018-07-09T05:03:56.690Z,50.93
2018-07-09T05:06:24.361Z,50.85
2018-07-09T05:08:52.176Z,50.89
2018-07-09T05:11:19.850Z,50.31
2018-07-09T05:13:47.552Z,50.72
2018-07-09T05:16:15.258Z,50.99
2018-07-09T05:18:42.943Z,50.63
2018-07-09T05:21:10.613Z,51.05
2018-07-09T05:23:38.293Z,50.78
2018-07-09T05:26:05.965Z,50.66
2018-07-09T05:28:33.664Z,50.15
2018-07-09T05:31:01.370Z,49.92
2018-07-09T05:33:29.069Z,50.24
2018-07-09T05:35:56.734Z,50.59
2018-07-09T05:38:25.621Z,50.29
2018-07-09T05:40:53.832Z,50.51
2018-07-09T05:43:22.541Z,50.04
2018-07-09T05:45:50.499Z,50.00
2018-07-09T05:48:18.308Z,49.85
2018-07-09T05:50:46.007Z,50.08
2018-07-09T05:53:13.987Z,50.06
2018-07-09T05:55:41.682Z,49.71
2018-07-09T05:58:09.441Z,49.87
2018-07-09T06:00:37.161Z,49.74
2018-07-09T06:03:04.905Z,49.63
2018-07-09T06:05:32.642Z,49.23
2018-07-09T06:08:00.410Z,50.06
2018-07-09T06:10:28.072Z,49.34
2018-07-09T06:12:55.875Z,49.37
2018-07-09T06:15:23.637Z,49.78
2018-07-09T06:17:51.377Z,49.76
2018-07-09T06:20:19.129Z,49.91
2018-07-09T06:22:47.028Z,49.41
2018-07-09T06:25:14.741Z,49.32
2018-07-09T06:27:42.510Z,49.48
2018-07-09T06:30:10.295Z,49.77
2018-07-09T06:32:37.982Z,49.45
2018-07-09T06:35:05.802Z,49.13
2018-07-09T06:37:33.595Z,48.90
2018-07-09T06:40:01.303Z,49.00
2018-07-09T06:42:29.030Z,49.49
2018-07-09T06:44:56.801Z,49.60
2018-07-09T06:47:24.530Z,49.03
2018-07-09T06:49:52.336Z,49.15
2018-07-09T06:52:20.039Z,49.26
2018-07-09T06:54:47.778Z,49.07
2018-07-09T06:57:15.496Z,48.94
2018-07-09T06:59:43.237Z,48.96
2018-07-09T07:02:10.939Z,49.02
2018-07-09T07:04:38.669Z,48.71
2018-07-09T07:07:06.432Z,49.09
2018-07-09T07:09:34.181Z,49.06
2018-07-09T07:12:01.890Z,49.03
2018-07-09T07:14:29.665Z,48.99
2018-07-09T07:16:57.349Z,49.01
2018-07-09T07:19:25.938Z,48.95
2018-07-09T07:21:53.761Z,48.93
2018-07-09T07:24:21.820Z,48.87
2018-07-09T07:26:49.516Z,49.03
2018-07-09T07:29:17.342Z,49.55
2018-07-09T07:31:45.064Z,49.13
2018-07-09T07:34:12.786Z,48.75
2018-07-09T07:36:40.567Z,48.69
2018-07-09T07:39:08.249Z,48.94
2018-07-09T07:41:35.954Z,48.75
2018-07-09T07:44:03.714Z,48.77
2018-07-09T07:46:31.382Z,48.86
2018-07-09T07:48:59.140Z,49.01
2018-07-09T07:51:26.967Z,48.65
2018-07-09T07:53:54.780Z,48.73
2018-07-09T07:56:22.518Z,48.50
2018-07-09T07:58:50.254Z,48.39
2018-07-09T08:01:17.990Z,48.77
2018-07-09T08:03:45.654Z,48.95
2018-07-09T08:06:13.396Z,48.57
2018-07-09T08:08:41.127Z,48.21
2018-07-09T08:11:11.223Z,48.58
2018-07-09T08:13:36.800Z,48.26
2018-07-09T08:16:04.860Z,47.66
2018-07-09T08:18:32.562Z,47.49
2018-07-09T08:21:00.321Z,47.57
2018-07-09T08:23:28.019Z,46.84
2018-07-09T08:25:55.682Z,47.38
2018-07-09T08:28:23.571Z,46.99
2018-07-09T08:30:51.245Z,46.84
2018-07-09T08:33:18.965Z,46.80
2018-07-09T08:35:46.961Z,46.92
2018-07-09T08:38:14.740Z,46.61
2018-07-09T08:40:42.452Z,46.94
2018-07-09T08:43:10.138Z,46.68
2018-07-09T08:45:37.918Z,47.41
2018-07-09T08:48:05.678Z,47.55
2018-07-09T08:50:33.405Z,47.31
2018-07-09T08:53:01.254Z,47.04
2018-07-09T08:55:29.018Z,46.84
2018-07-09T08:57:56.709Z,46.61
2018-07-09T09:00:24.474Z,47.01
2018-07-09T09:02:52.345Z,47.19
2018-07-09T09:05:20.221Z,46.88
2018-07-09T09:07:47.885Z,46.50
2018-07-09T09:10:15.652Z,46.52
2018-07-09T09:12:43.338Z,46.62
2018-07-09T09:15:11.044Z,46.26
2018-07-09T09:17:38.788Z,45.80
2018-07-09T09:20:06.621Z,46.04
2018-07-09T09:22:34.321Z,46.30
2018-07-09T09:25:01.996Z,45.93
2018-07-09T09:27:29.859Z,45.39
2018-07-09T09:29:57.541Z,46.26
2018-07-09T09:32:25.314Z,46.36
2018-07-09T09:34:53.052Z,45.17
2018-07-09T09:37:20.847Z,44.60
2018-07-09T09:39:48.538Z,43.55
2018-07-09T09:42:16.262Z,42.76
2018-07-09T09:44:43.949Z,43.36
2018-07-09T09:47:11.690Z,44.13
2018-07-09T09:49:39.374Z,43.67
2018-07-09T09:52:07.081Z,43.85
2018-07-09T09:54:34.895Z,43.30
2018-07-09T09:57:02.825Z,43.67
2018-07-09T09:59:30.595Z,43.52
2018-07-09T10:01:58.322Z,43.69
2018-07-09T10:04:26.026Z,43.62
2018-07-09T10:06:53.769Z,43.41
2018-07-09T10:09:21.464Z,43.78
2018-07-09T10:11:49.137Z,43.06
2018-07-09T10:14:16.823Z,43.14
2018-07-09T10:16:44.599Z,42.92
2018-07-09T10:19:12.269Z,42.26
2018-07-09T10:21:39.971Z,42.86
2018-07-09T10:24:07.686Z,42.56
2018-07-09T10:26:35.393Z,42.40
2018-07-09T10:29:03.114Z,42.52
2018-07-09T10:31:30.811Z,42.20
2018-07-09T10:33:58.510Z,42.55
2018-07-09T10:36:26.203Z,42.31
2018-07-09T10:38:53.912Z,42.25
2018-07-09T10:41:21.601Z,42.31
2018-07-09T10:43:49.393Z,42.07
2018-07-09T10:46:17.182Z,41.55
2018-07-09T10:48:45.003Z,41.70
2018-07-09T10:51:12.729Z,41.37
2018-07-09T10:53:40.446Z,41.50
2018-07-09T10:56:08.181Z,41.76
2018-07-09T10:58:35.963Z,41.81
2018-07-09T11:01:03.728Z,42.18
2018-07-09T11:03:31.754Z,41.43
2018-07-09T11:05:59.557Z,41.25
2018-07-09T11:08:27.273Z,42.05
2018-07-09T11:10:54.978Z,41.74
2018-07-09T11:13:22.667Z,41.39
2018-07-09T11:15:50.417Z,41.14
2018-07-09T11:18:18.109Z,40.84
2018-07-09T11:20:46.603Z,41.18
2018-07-09T11:23:16.102Z,41.99
2018-07-09T11:25:43.882Z,42.29
2018-07-09T11:28:11.613Z,42.27
2018-07-09T11:30:39.358Z,42.07
2018-07-09T11:33:07.317Z,42.54
2018-07-09T11:35:34.962Z,42.63
2018-07-09T11:38:02.750Z,42.97
2018-07-09T11:40:30.426Z,43.00
2018-07-09T11:42:58.166Z,42.84
2018-07-09T11:45:25.874Z,42.56
2018-07-09T11:47:53.584Z,42.86
2018-07-09T11:50:21.282Z,42.24
2018-07-09T11:52:48.933Z,42.70
2018-07-09T11:55:16.677Z,42.51
2018-07-09T11:57:44.381Z,43.19
2018-07-09T12:00:12.123Z,42.79
2018-07-09T12:02:40.906Z,42.68
2018-07-09T12:05:08.813Z,42.43
2018-07-09T12:07:36.510Z,42.57
2018-07-09T12:10:04.656Z,42.16
2018-07-09T12:12:32.431Z,42.00
2018-07-09T12:15:00.187Z,41.76
2018-07-09T12:17:27.897Z,41.70
2018-07-09T12:19:55.596Z,42.20
2018-07-09T12:22:23.272Z,41.84
2018-07-09T12:24:50.913Z,41.72
2018-07-09T12:27:18.598Z,42.20
2018-07-09T12:29:46.294Z,42.20
2018-07-09T12:32:13.977Z,41.73
2018-07-09T12:34:41.665Z,41.61
2018-07-09T12:37:09.319Z,42.08
2018-07-09T12:39:37.029Z,41.82
2018-07-09T12:42:04.724Z,41.74
2018-07-09T12:44:32.404Z,41.41
2018-07-09T12:47:00.116Z,41.76
2018-07-09T12:49:27.898Z,41.36
2018-07-09T12:51:55.843Z,41.28
2018-07-09T12:54:23.526Z,41.62
2018-07-09T12:56:51.218Z,41.68
2018-07-09T12:59:18.949Z,41.42
2018-07-09T13:01:46.717Z,41.40
2018-07-09T13:04:14.382Z,41.57
2018-07-09T13:06:42.929Z,41.16
2018-07-09T13:09:10.612Z,41.86
2018-07-09T13:11:38.294Z,41.46
2018-07-09T13:14:06.052Z,41.63
2018-07-09T13:16:33.762Z,41.67
2018-07-09T13:19:01.408Z,42.34
2018-07-09T13:21:29.125Z,42.02
2018-07-09T13:23:56.905Z,42.34
2018-07-09T13:26:24.613Z,42.15
2018-07-09T13:28:52.493Z,41.96
2018-07-09T13:31:20.270Z,42.30
2018-07-09T13:33:48.044Z,41.86
2018-07-09T13:36:15.838Z,41.84
2018-07-09T13:38:43.569Z,42.08
2018-07-09T13:41:11.353Z,42.32
2018-07-09T13:43:39.070Z,42.30
2018-07-09T13:46:06.782Z,42.38
2018-07-09T13:48:34.565Z,42.76
2018-07-09T13:51:02.362Z,42.68
2018-07-09T13:53:30.138Z,42.26
2018-07-09T13:55:58.155Z,42.66
2018-07-09T13:58:25.891Z,42.25
2018-07-09T14:00:53.654Z,42.39
2018-07-09T14:03:21.394Z,42.68
2018-07-09T14:05:49.049Z,41.92
2018-07-09T14:08:16.732Z,42.25
2018-07-09T14:10:44.404Z,42.42
2018-07-09T14:13:12.107Z,41.86
2018-07-09T14:15:39.821Z,42.27
2018-07-09T14:18:07.937Z,42.03
2018-07-09T14:20:39.075Z,42.17
2018-07-09T14:23:07.633Z,42.69
2018-07-09T14:25:35.459Z,42.42
2018-07-09T14:28:03.243Z,42.54
2018-07-09T14:30:31.052Z,42.47
2018-07-09T14:32:58.948Z,42.66
2018-07-09T14:35:26.755Z,42.78
2018-07-09T14:37:54.467Z,42.40
2018-07-09T14:40:22.342Z,42.52
2018-07-09T14:42:50.061Z,42.66
2018-07-09T14:45:17.828Z,42.72
2018-07-09T14:47:45.490Z,42.61
2018-07-09T14:50:13.280Z,42.36
2018-07-09T14:52:41.017Z,42.42
2018-07-09T14:55:08.710Z,42.31
2018-07-09T14:57:36.386Z,42.54
2018-07-09T15:00:04.986Z,42.35
2018-07-09T15:02:32.729Z,42.10
2018-07-09T15:05:00.457Z,42.13
2018-07-09T15:07:28.117Z,42.07
2018-07-09T15:09:55.834Z,42.05
2018-07-09T15:12:23.577Z,42.22
2018-07-09T15:14:51.305Z,41.11
2018-07-09T15:17:19.069Z,41.53
2018-07-09T15:19:46.801Z,40.99
2018-07-09T15:22:14.594Z,40.79
2018-07-09T15:24:42.465Z,41.13
2018-07-09T15:27:10.161Z,40.30
2018-07-09T15:29:37.867Z,40.68
2018-07-09T15:32:16.445Z,40.03
2018-07-09T15:34:44.150Z,39.92
2018-07-09T15:37:11.855Z,40.07
2018-07-09T15:39:39.538Z,39.97
2018-07-09T15:42:07.246Z,40.22
2018-07-09T15:44:34.967Z,40.43
2018-07-09T15:47:02.762Z,40.33
2018-07-09T15:49:30.486Z,39.97
2018-07-09T15:51:58.183Z,39.86
2018-07-09T15:54:25.854Z,39.74
2018-07-09T15:56:53.589Z,40.22
2018-07-09T15:59:21.290Z,40.05
2018-07-09T16:01:48.993Z,40.10
2018-07-09T16:04:16.722Z,40.42
2018-07-09T16:06:44.488Z,40.54
2018-07-09T16:09:12.203Z,40.08
2018-07-09T16:11:39.869Z,40.61
2018-07-09T16:14:07.579Z,40.60
2018-07-09T16:16:35.277Z,40.10
2018-07-09T16:19:03.161Z,40.28
2018-07-09T16:21:30.893Z,40.54
2018-07-09T16:23:58.653Z,40.95
2018-07-09T16:26:26.330Z,41.23
2018-07-09T16:28:54.039Z,40.83
2018-07-09T16:31:21.781Z,41.29
2018-07-09T16:33:49.656Z,41.65
2018-07-09T16:36:17.365Z,41.60
2018-07-09T16:38:45.061Z,41.57
2018-07-09T16:41:12.810Z,41.63
2018-07-09T16:43:40.514Z,41.68
2018-07-09T16:46:08.255Z,41.54
2018-07-09T16:48:35.999Z,41.53
2018-07-09T16:51:03.778Z,41.73
2018-07-09T16:53:31.489Z,42.03
2018-07-09T16:55:59.211Z,41.72
2018-07-09T16:58:26.906Z,42.16
2018-07-09T17:00:54.627Z,42.01
2018-07-09T17:03:22.359Z,41.93
2018-07-09T17:05:50.074Z,42.05
2018-07-09T17:08:17.729Z,42.37
2018-07-09T17:10:45.422Z,42.87
2018-07-09T17:13:13.101Z,42.69
2018-07-09T17:15:40.801Z,42.32
2018-07-09T17:18:08.610Z,42.19
2018-07-09T17:20:36.318Z,42.42
2018-07-09T17:23:03.981Z,41.95
2018-07-09T17:25:31.665Z,42.34
2018-07-09T17:27:59.378Z,42.41
2018-07-09T17:30:27.135Z,41.90
2018-07-09T17:32:55.715Z,42.89
2018-07-09T17:35:23.397Z,42.07
2018-07-09T17:37:51.263Z,42.28
2018-07-09T17:40:19.065Z,42.06
2018-07-09T17:42:46.773Z,42.51
2018-07-09T17:45:14.444Z,41.99
2018-07-09T17:47:42.156Z,42.31
2018-07-09T17:50:09.969Z,42.25
2018-07-09T17:52:38.453Z,42.25
2018-07-09T17:55:06.182Z,42.39
2018-07-09T17:57:33.850Z,42.48
2018-07-09T18:00:01.630Z,42.28
2018-07-09T18:02:29.310Z,42.45
2018-07-09T18:04:57.006Z,42.83
2018-07-09T18:07:24.839Z,42.47
2018-07-09T18:09:52.526Z,42.65
2018-07-09T18:12:20.204Z,42.58
2018-07-09T18:14:47.898Z,42.34
2018-07-09T18:17:15.584Z,42.93
2018-07-09T18:19:43.334Z,43.00
2018-07-09T18:22:11.047Z,42.76
2018-07-09T18:24:38.744Z,43.28
2018-07-09T18:27:06.457Z,43.59
2018-07-09T18:29:34.163Z,43.07
2018-07-09T18:32:01.874Z,43.45
2018-07-09T18:34:29.541Z,43.32
2018-07-09T18:36:57.304Z,43.33
2018-07-09T18:39:25.015Z,43.20
2018-07-09T18:41:52.689Z,43.42
2018-07-09T18:44:20.394Z,43.44
2018-07-09T18:46:48.077Z,44.21
2018-07-09T18:49:15.766Z,44.41
2018-07-09T18:51:43.446Z,44.22
2018-07-09T18:54:11.174Z,44.19
2018-07-09T18:56:38.844Z,46.24
2018-07-09T18:59:06.546Z,47.46
2018-07-09T19:01:34.262Z,48.31
2018-07-09T19:04:01.938Z,48.07
2018-07-09T19:06:40.521Z,47.70
2018-07-09T19:09:08.245Z,47.09
2018-07-09T19:11:36.086Z,47.32
2018-07-09T19:14:03.818Z,47.02
2018-07-09T19:16:36.072Z,46.79
2018-07-09T19:19:14.856Z,47.28
2018-07-09T19:21:53.751Z,47.36
2018-07-09T19:24:20.202Z,47.80
2018-07-09T19:26:46.630Z,47.38
2018-07-09T19:29:13.077Z,47.91
2018-07-09T19:31:39.522Z,47.36
2018-07-09T19:34:05.988Z,47.32
2018-07-09T19:36:32.498Z,47.08
2018-07-09T19:38:58.921Z,47.27
2018-07-09T19:41:25.369Z,47.01
2018-07-09T19:43:51.857Z,47.39
2018-07-09T19:46:18.337Z,47.62
2018-07-09T19:48:44.814Z,47.20
2018-07-09T19:51:11.245Z,47.24
2018-07-09T19:53:37.694Z,47.91
2018-07-09T19:56:04.142Z,48.59
2018-07-09T19:58:30.587Z,48.10
2018-07-09T20:00:57.019Z,47.84
2018-07-09T20:03:23.506Z,48.11
2018-07-09T20:05:49.954Z,48.54
2018-07-09T20:08:16.443Z,48.87
2018-07-09T20:10:48.540Z,48.93
2018-07-09T20:13:20.744Z,48.48
2018-07-09T20:15:52.848Z,48.57
2018-07-09T20:18:19.289Z,48.43
2018-07-09T20:20:45.768Z,48.59
2018-07-09T20:23:12.242Z,48.51
2018-07-09T20:25:38.693Z,48.64
2018-07-09T20:28:05.124Z,48.45
2018-07-09T20:30:31.553Z,48.76
2018-07-09T20:32:57.991Z,48.98
2018-07-09T20:35:24.445Z,49.02
2018-07-09T20:37:50.888Z,49.03
2018-07-09T20:40:17.356Z,49.04
2018-07-09T20:42:43.796Z,49.61
2018-07-09T20:45:10.262Z,49.61
2018-07-09T20:47:36.678Z,49.61
2018-07-09T20:50:03.136Z,49.75
2018-07-09T20:52:29.574Z,49.55
2018-07-09T20:54:56.018Z,49.74
2018-07-09T20:57:22.473Z,49.75
2018-07-09T20:59:48.917Z,49.57
2018-07-09T21:02:15.357Z,49.58
2018-07-09T21:04:41.800Z,49.74
2018-07-09T21:07:08.263Z,50.63
2018-07-09T21:09:34.714Z,50.00
2018-07-09T21:12:06.517Z,50.16
2018-07-09T21:14:32.966Z,49.92
2018-07-09T21:16:59.404Z,49.96
2018-07-09T21:19:25.839Z,49.71
2018-07-09T21:21:52.244Z,50.28
2018-07-09T21:24:18.683Z,50.41
2018-07-09T21:26:45.122Z,50.49
2018-07-09T21:29:11.554Z,50.21
2018-07-09T21:31:37.982Z,50.33
2018-07-09T21:34:04.485Z,50.60
2018-07-09T21:36:30.901Z,50.50
2018-07-09T21:38:57.332Z,51.64
2018-07-09T21:41:23.761Z,51.89
2018-07-09T21:43:50.193Z,53.23
2018-07-09T21:46:16.653Z,53.02
2018-07-09T21:48:43.187Z,52.73
2018-07-09T21:51:09.607Z,52.52
2018-07-09T21:53:36.041Z,53.04
2018-07-09T21:56:02.487Z,54.62
2018-07-09T21:58:28.921Z,54.82
2018-07-09T22:00:55.366Z,54.93
2018-07-09T22:03:21.804Z,53.67
2018-07-09T22:05:48.241Z,52.77
2018-07-09T22:08:14.716Z,52.79
2018-07-09T22:10:41.184Z,53.01
2018-07-09T22:13:07.630Z,54.09
2018-07-09T22:15:34.062Z,55.06
2018-07-09T22:18:00.520Z,55.32
2018-07-09T22:20:26.963Z,54.85
2018-07-09T22:22:53.408Z,54.25
2018-07-09T22:25:19.862Z,53.44
2018-07-09T22:27:46.278Z,53.71
2018-07-09T22:30:12.721Z,53.25
2018-07-09T22:32:40.404Z,53.15
2018-07-09T22:35:08.123Z,52.93
2018-07-09T22:37:35.788Z,53.21
2018-07-09T22:40:03.507Z,53.14
2018-07-09T22:42:31.190Z,53.09
2018-07-09T22:44:58.892Z,53.57
2018-07-09T22:47:26.632Z,53.45
2018-07-09T22:49:54.310Z,53.48
2018-07-09T22:52:21.993Z,53.44
2018-07-09T22:54:59.879Z,53.74
2018-07-09T22:57:27.540Z,53.67
2018-07-09T22:59:55.220Z,54.03
2018-07-09T23:02:22.920Z,55.13
2018-07-09T23:04:50.623Z,55.11
2018-07-09T23:07:18.309Z,54.54
2018-07-09T23:10:08.046Z,54.71
2018-07-09T23:12:47.552Z,55.13
2018-07-09T23:16:50.353Z,54.69
2018-07-09T23:22:17.041Z,54.72
2018-07-09T23:24:43.490Z,55.52
2018-07-09T23:27:09.912Z,55.96
2018-07-09T23:29:36.357Z,55.41
2018-07-09T23:32:02.809Z,55.90
2018-07-09T23:34:29.244Z,55.19
2018-07-09T23:36:55.682Z,55.53
2018-07-09T23:39:22.124Z,56.79
2018-07-09T23:41:48.565Z,56.29
2018-07-09T23:44:14.978Z,56.00
2018-07-09T23:46:41.418Z,55.70
2018-07-09T23:49:07.866Z,56.36
2018-07-09T23:51:34.312Z,55.92
2018-07-09T23:54:00.759Z,55.73
2018-07-09T23:59:41.767Z,56.19
